sensor_id;sensor_type;location;lat;lon;timestamp;P1;durP1;ratioP1;P2;durP2;ratioP2
77012;SDS011;67260;53.130;17.982;2023-05-20T00:01:38;7.50;;;2.90;;
77012;SDS011;67260;53.130;17.982;2023-05-20T00:04:04;4.80;;;3.00;;
77012;SDS011;67260;53.130;17.982;2023-05-20T00:06:34;5.80;;;2.70;;
77012;SDS011;67260;53.130;17.982;2023-05-20T00:09:01;7.20;;;3.20;;
77012;SDS011;67260;53.130;17.982;2023-05-20T00:11:29;6.40;;;3.10;;
77012;SDS011;67260;53.130;17.982;2023-05-20T00:13:56;5.80;;;3.30;;
77012;SDS011;67260;53.130;17.982;2023-05-20T00:16:23;7.90;;;3.30;;
77012;SDS011;67260;53.130;17.982;2023-05-20T00:18:50;10.00;;;3.50;;
77012;SDS011;67260;53.130;17.982;2023-05-20T00:21:16;5.50;;;3.20;;
77012;SDS011;67260;53.130;17.982;2023-05-20T00:23:42;5.90;;;3.40;;
77012;SDS011;67260;53.130;17.982;2023-05-20T00:26:08;6.90;;;3.10;;
77012;SDS011;67260;53.130;17.982;2023-05-20T00:28:35;6.00;;;3.00;;
77012;SDS011;67260;53.130;17.982;2023-05-20T00:31:16;6.00;;;3.20;;
77012;SDS011;67260;53.130;17.982;2023-05-20T00:33:43;5.40;;;3.40;;
77012;SDS011;67260;53.130;17.982;2023-05-20T00:36:08;6.70;;;3.40;;
77012;SDS011;67260;53.130;17.982;2023-05-20T00:38:35;7.20;;;3.50;;
77012;SDS011;67260;53.130;17.982;2023-05-20T00:41:01;7.20;;;3.90;;
77012;SDS011;67260;53.130;17.982;2023-05-20T00:45:53;5.60;;;3.30;;
77012;SDS011;67260;53.130;17.982;2023-05-20T00:48:20;7.80;;;3.50;;
77012;SDS011;67260;53.130;17.982;2023-05-20T00:50:47;6.20;;;3.50;;
77012;SDS011;67260;53.130;17.982;2023-05-20T00:53:17;6.60;;;3.50;;
77012;SDS011;67260;53.130;17.982;2023-05-20T00:55:48;6.10;;;3.10;;
77012;SDS011;67260;53.130;17.982;2023-05-20T00:58:15;6.30;;;3.00;;
77012;SDS011;67260;53.130;17.982;2023-05-20T01:00:43;6.40;;;3.10;;
77012;SDS011;67260;53.130;17.982;2023-05-20T01:03:11;6.20;;;3.20;;
77012;SDS011;67260;53.130;17.982;2023-05-20T01:05:38;6.30;;;3.10;;
77012;SDS011;67260;53.130;17.982;2023-05-20T01:08:05;5.90;;;3.10;;
77012;SDS011;67260;53.130;17.982;2023-05-20T01:10:33;5.90;;;3.20;;
77012;SDS011;67260;53.130;17.982;2023-05-20T01:13:04;6.60;;;3.20;;
77012;SDS011;67260;53.130;17.982;2023-05-20T01:15:37;6.70;;;3.30;;
77012;SDS011;67260;53.130;17.982;2023-05-20T01:18:12;7.00;;;3.20;;
77012;SDS011;67260;53.130;17.982;2023-05-20T01:20:45;7.00;;;3.20;;
77012;SDS011;67260;53.130;17.982;2023-05-20T01:23:15;6.50;;;2.70;;
77012;SDS011;67260;53.130;17.982;2023-05-20T01:25:42;5.90;;;3.00;;
77012;SDS011;67260;53.130;17.982;2023-05-20T01:28:08;6.90;;;3.30;;
77012;SDS011;67260;53.130;17.982;2023-05-20T01:30:36;7.20;;;3.00;;
77012;SDS011;67260;53.130;17.982;2023-05-20T01:33:09;6.10;;;3.00;;
77012;SDS011;67260;53.130;17.982;2023-05-20T01:35:38;9.60;;;3.10;;
77012;SDS011;67260;53.130;17.982;2023-05-20T01:38:06;6.70;;;3.00;;
77012;SDS011;67260;53.130;17.982;2023-05-20T01:40:33;4.70;;;2.50;;
77012;SDS011;67260;53.130;17.982;2023-05-20T01:43:02;5.90;;;3.10;;
77012;SDS011;67260;53.130;17.982;2023-05-20T01:45:30;6.80;;;2.90;;
77012;SDS011;67260;53.130;17.982;2023-05-20T01:47:56;4.70;;;2.70;;
77012;SDS011;67260;53.130;17.982;2023-05-20T01:50:25;4.70;;;2.40;;
77012;SDS011;67260;53.130;17.982;2023-05-20T01:52:52;6.70;;;2.90;;
77012;SDS011;67260;53.130;17.982;2023-05-20T01:55:24;5.00;;;2.80;;
77012;SDS011;67260;53.130;17.982;2023-05-20T01:57:50;8.80;;;2.90;;
77012;SDS011;67260;53.130;17.982;2023-05-20T02:00:16;6.60;;;2.80;;
77012;SDS011;67260;53.130;17.982;2023-05-20T02:02:43;6.70;;;2.60;;
77012;SDS011;67260;53.130;17.982;2023-05-20T02:05:11;6.10;;;2.70;;
77012;SDS011;67260;53.130;17.982;2023-05-20T02:07:37;4.60;;;2.50;;
77012;SDS011;67260;53.130;17.982;2023-05-20T02:10:03;5.70;;;2.60;;
77012;SDS011;67260;53.130;17.982;2023-05-20T02:12:32;6.50;;;2.40;;
77012;SDS011;67260;53.130;17.982;2023-05-20T02:15:00;5.70;;;2.50;;
77012;SDS011;67260;53.130;17.982;2023-05-20T02:17:34;5.60;;;2.40;;
77012;SDS011;67260;53.130;17.982;2023-05-20T02:20:00;7.90;;;2.70;;
77012;SDS011;67260;53.130;17.982;2023-05-20T02:22:34;6.40;;;2.50;;
77012;SDS011;67260;53.130;17.982;2023-05-20T02:25:10;6.70;;;3.10;;
77012;SDS011;67260;53.130;17.982;2023-05-20T02:27:39;4.50;;;2.80;;
77012;SDS011;67260;53.130;17.982;2023-05-20T02:30:08;5.50;;;2.80;;
77012;SDS011;67260;53.130;17.982;2023-05-20T02:32:35;5.40;;;2.30;;
77012;SDS011;67260;53.130;17.982;2023-05-20T02:35:02;6.50;;;3.00;;
77012;SDS011;67260;53.130;17.982;2023-05-20T02:37:32;4.50;;;2.60;;
77012;SDS011;67260;53.130;17.982;2023-05-20T02:40:00;5.80;;;2.70;;
77012;SDS011;67260;53.130;17.982;2023-05-20T02:42:27;5.30;;;2.80;;
77012;SDS011;67260;53.130;17.982;2023-05-20T02:44:56;7.80;;;2.70;;
77012;SDS011;67260;53.130;17.982;2023-05-20T02:47:28;6.60;;;2.70;;
77012;SDS011;67260;53.130;17.982;2023-05-20T02:49:54;6.40;;;2.60;;
77012;SDS011;67260;53.130;17.982;2023-05-20T02:52:21;5.40;;;2.70;;
77012;SDS011;67260;53.130;17.982;2023-05-20T02:57:13;7.40;;;3.00;;
77012;SDS011;67260;53.130;17.982;2023-05-20T02:59:39;6.80;;;3.30;;
77012;SDS011;67260;53.130;17.982;2023-05-20T03:02:05;6.10;;;3.20;;
77012;SDS011;67260;53.130;17.982;2023-05-20T03:04:32;6.20;;;3.00;;
77012;SDS011;67260;53.130;17.982;2023-05-20T03:06:58;6.70;;;3.00;;
77012;SDS011;67260;53.130;17.982;2023-05-20T03:09:25;6.40;;;3.20;;
77012;SDS011;67260;53.130;17.982;2023-05-20T03:11:52;5.40;;;2.80;;
77012;SDS011;67260;53.130;17.982;2023-05-20T03:14:18;5.90;;;3.20;;
77012;SDS011;67260;53.130;17.982;2023-05-20T03:16:44;7.40;;;3.10;;
77012;SDS011;67260;53.130;17.982;2023-05-20T03:19:12;5.90;;;3.00;;
77012;SDS011;67260;53.130;17.982;2023-05-20T03:21:38;6.80;;;3.60;;
77012;SDS011;67260;53.130;17.982;2023-05-20T03:24:05;7.20;;;3.20;;
77012;SDS011;67260;53.130;17.982;2023-05-20T03:26:32;6.20;;;3.90;;
77012;SDS011;67260;53.130;17.982;2023-05-20T03:29:04;6.20;;;3.30;;
77012;SDS011;67260;53.130;17.982;2023-05-20T03:31:31;6.30;;;3.30;;
77012;SDS011;67260;53.130;17.982;2023-05-20T03:33:57;6.50;;;2.90;;
77012;SDS011;67260;53.130;17.982;2023-05-20T03:36:23;6.90;;;3.20;;
77012;SDS011;67260;53.130;17.982;2023-05-20T03:38:51;6.70;;;3.40;;
77012;SDS011;67260;53.130;17.982;2023-05-20T03:41:17;5.80;;;3.00;;
77012;SDS011;67260;53.130;17.982;2023-05-20T03:46:13;8.30;;;3.20;;
77012;SDS011;67260;53.130;17.982;2023-05-20T03:48:40;7.00;;;3.10;;
77012;SDS011;67260;53.130;17.982;2023-05-20T03:51:07;6.40;;;3.10;;
77012;SDS011;67260;53.130;17.982;2023-05-20T03:53:33;8.60;;;3.10;;
77012;SDS011;67260;53.130;17.982;2023-05-20T03:55:59;6.80;;;3.00;;
77012;SDS011;67260;53.130;17.982;2023-05-20T03:58:26;7.50;;;2.90;;
77012;SDS011;67260;53.130;17.982;2023-05-20T04:00:55;6.30;;;3.50;;
77012;SDS011;67260;53.130;17.982;2023-05-20T04:03:21;5.10;;;2.70;;
77012;SDS011;67260;53.130;17.982;2023-05-20T04:05:48;5.70;;;2.90;;
77012;SDS011;67260;53.130;17.982;2023-05-20T04:08:19;8.80;;;3.20;;
77012;SDS011;67260;53.130;17.982;2023-05-20T04:10:48;6.40;;;3.00;;
77012;SDS011;67260;53.130;17.982;2023-05-20T04:13:14;5.70;;;2.90;;
77012;SDS011;67260;53.130;17.982;2023-05-20T04:18:06;6.90;;;3.10;;
77012;SDS011;67260;53.130;17.982;2023-05-20T04:20:33;5.30;;;2.90;;
77012;SDS011;67260;53.130;17.982;2023-05-20T04:25:25;7.30;;;3.00;;
77012;SDS011;67260;53.130;17.982;2023-05-20T04:27:52;4.40;;;2.60;;
77012;SDS011;67260;53.130;17.982;2023-05-20T04:30:19;6.00;;;2.20;;
77012;SDS011;67260;53.130;17.982;2023-05-20T04:32:47;6.90;;;2.60;;
77012;SDS011;67260;53.130;17.982;2023-05-20T04:35:15;7.20;;;2.80;;
77012;SDS011;67260;53.130;17.982;2023-05-20T04:37:43;4.30;;;2.40;;
77012;SDS011;67260;53.130;17.982;2023-05-20T04:40:12;5.70;;;2.60;;
77012;SDS011;67260;53.130;17.982;2023-05-20T04:42:40;4.80;;;2.50;;
77012;SDS011;67260;53.130;17.982;2023-05-20T04:45:07;6.10;;;2.90;;
77012;SDS011;67260;53.130;17.982;2023-05-20T04:47:35;6.90;;;2.80;;
77012;SDS011;67260;53.130;17.982;2023-05-20T04:50:07;4.80;;;2.50;;
77012;SDS011;67260;53.130;17.982;2023-05-20T04:52:41;5.10;;;2.40;;
77012;SDS011;67260;53.130;17.982;2023-05-20T04:55:10;6.70;;;2.70;;
77012;SDS011;67260;53.130;17.982;2023-05-20T04:57:37;5.40;;;2.30;;
77012;SDS011;67260;53.130;17.982;2023-05-20T05:00:07;4.90;;;2.60;;
77012;SDS011;67260;53.130;17.982;2023-05-20T05:02:35;5.60;;;2.50;;
77012;SDS011;67260;53.130;17.982;2023-05-20T05:05:04;5.20;;;2.50;;
77012;SDS011;67260;53.130;17.982;2023-05-20T05:07:31;4.40;;;2.40;;
77012;SDS011;67260;53.130;17.982;2023-05-20T05:10:00;7.40;;;2.30;;
77012;SDS011;67260;53.130;17.982;2023-05-20T05:12:28;4.90;;;2.30;;
77012;SDS011;67260;53.130;17.982;2023-05-20T05:14:58;4.70;;;2.30;;
77012;SDS011;67260;53.130;17.982;2023-05-20T05:17:24;5.40;;;2.50;;
77012;SDS011;67260;53.130;17.982;2023-05-20T05:19:51;5.80;;;2.60;;
77012;SDS011;67260;53.130;17.982;2023-05-20T05:22:18;4.80;;;2.30;;
77012;SDS011;67260;53.130;17.982;2023-05-20T05:24:46;5.10;;;2.20;;
77012;SDS011;67260;53.130;17.982;2023-05-20T05:27:23;5.10;;;2.70;;
77012;SDS011;67260;53.130;17.982;2023-05-20T05:29:52;5.10;;;2.50;;
77012;SDS011;67260;53.130;17.982;2023-05-20T05:32:30;5.20;;;2.50;;
77012;SDS011;67260;53.130;17.982;2023-05-20T05:35:12;5.10;;;2.50;;
77012;SDS011;67260;53.130;17.982;2023-05-20T05:37:41;5.00;;;2.50;;
77012;SDS011;67260;53.130;17.982;2023-05-20T05:40:08;4.90;;;2.30;;
77012;SDS011;67260;53.130;17.982;2023-05-20T05:42:37;4.30;;;2.50;;
77012;SDS011;67260;53.130;17.982;2023-05-20T05:45:06;4.20;;;2.10;;
77012;SDS011;67260;53.130;17.982;2023-05-20T05:47:33;4.50;;;2.10;;
77012;SDS011;67260;53.130;17.982;2023-05-20T05:50:00;4.90;;;2.40;;
77012;SDS011;67260;53.130;17.982;2023-05-20T05:52:31;5.00;;;2.30;;
77012;SDS011;67260;53.130;17.982;2023-05-20T05:54:59;5.40;;;2.90;;
77012;SDS011;67260;53.130;17.982;2023-05-20T05:57:26;6.90;;;3.20;;
77012;SDS011;67260;53.130;17.982;2023-05-20T05:59:53;6.20;;;2.80;;
77012;SDS011;67260;53.130;17.982;2023-05-20T06:02:24;7.20;;;2.90;;
77012;SDS011;67260;53.130;17.982;2023-05-20T06:04:53;5.50;;;2.20;;
77012;SDS011;67260;53.130;17.982;2023-05-20T06:07:25;5.20;;;2.40;;
77012;SDS011;67260;53.130;17.982;2023-05-20T06:10:06;6.40;;;2.40;;
77012;SDS011;67260;53.130;17.982;2023-05-20T06:12:36;6.80;;;2.40;;
77012;SDS011;67260;53.130;17.982;2023-05-20T06:15:03;5.00;;;2.10;;
77012;SDS011;67260;53.130;17.982;2023-05-20T06:17:30;5.20;;;2.20;;
77012;SDS011;67260;53.130;17.982;2023-05-20T06:19:56;5.20;;;2.50;;
77012;SDS011;67260;53.130;17.982;2023-05-20T06:22:23;4.70;;;2.30;;
77012;SDS011;67260;53.130;17.982;2023-05-20T06:24:50;5.90;;;2.20;;
77012;SDS011;67260;53.130;17.982;2023-05-20T06:27:16;6.30;;;2.40;;
77012;SDS011;67260;53.130;17.982;2023-05-20T06:29:50;5.70;;;2.60;;
77012;SDS011;67260;53.130;17.982;2023-05-20T06:32:16;5.60;;;2.30;;
77012;SDS011;67260;53.130;17.982;2023-05-20T06:35:00;5.70;;;2.50;;
77012;SDS011;67260;53.130;17.982;2023-05-20T06:37:29;4.50;;;2.30;;
77012;SDS011;67260;53.130;17.982;2023-05-20T06:40:17;5.30;;;2.40;;
77012;SDS011;67260;53.130;17.982;2023-05-20T06:42:46;5.60;;;2.30;;
77012;SDS011;67260;53.130;17.982;2023-05-20T06:46:03;5.30;;;2.30;;
77012;SDS011;67260;53.130;17.982;2023-05-20T06:48:57;4.90;;;2.40;;
77012;SDS011;67260;53.130;17.982;2023-05-20T06:51:23;6.30;;;3.50;;
77012;SDS011;67260;53.130;17.982;2023-05-20T06:53:58;5.70;;;2.60;;
77012;SDS011;67260;53.130;17.982;2023-05-20T06:56:28;5.10;;;2.40;;
77012;SDS011;67260;53.130;17.982;2023-05-20T06:59:01;6.70;;;2.30;;
77012;SDS011;67260;53.130;17.982;2023-05-20T07:01:28;3.90;;;2.10;;
77012;SDS011;67260;53.130;17.982;2023-05-20T07:03:55;4.20;;;2.10;;
77012;SDS011;67260;53.130;17.982;2023-05-20T07:08:48;4.90;;;2.50;;
77012;SDS011;67260;53.130;17.982;2023-05-20T07:11:19;5.50;;;2.70;;
77012;SDS011;67260;53.130;17.982;2023-05-20T07:13:46;6.90;;;2.50;;
77012;SDS011;67260;53.130;17.982;2023-05-20T07:16:14;8.50;;;2.80;;
77012;SDS011;67260;53.130;17.982;2023-05-20T07:18:44;5.30;;;2.40;;
77012;SDS011;67260;53.130;17.982;2023-05-20T07:21:10;6.70;;;2.70;;
77012;SDS011;67260;53.130;17.982;2023-05-20T07:23:56;4.50;;;2.40;;
77012;SDS011;67260;53.130;17.982;2023-05-20T07:26:22;5.40;;;2.60;;
77012;SDS011;67260;53.130;17.982;2023-05-20T07:28:48;4.70;;;2.30;;
77012;SDS011;67260;53.130;17.982;2023-05-20T07:31:15;7.80;;;2.70;;
77012;SDS011;67260;53.130;17.982;2023-05-20T07:33:44;6.40;;;2.50;;
77012;SDS011;67260;53.130;17.982;2023-05-20T07:36:13;4.80;;;2.20;;
77012;SDS011;67260;53.130;17.982;2023-05-20T07:38:41;6.20;;;2.60;;
77012;SDS011;67260;53.130;17.982;2023-05-20T07:41:08;4.60;;;2.20;;
77012;SDS011;67260;53.130;17.982;2023-05-20T07:46:01;6.70;;;2.30;;
77012;SDS011;67260;53.130;17.982;2023-05-20T07:48:28;6.10;;;2.80;;
77012;SDS011;67260;53.130;17.982;2023-05-20T07:50:54;4.70;;;2.20;;
77012;SDS011;67260;53.130;17.982;2023-05-20T07:53:24;4.80;;;2.10;;
77012;SDS011;67260;53.130;17.982;2023-05-20T07:55:50;5.70;;;2.70;;
77012;SDS011;67260;53.130;17.982;2023-05-20T07:58:17;5.50;;;2.40;;
77012;SDS011;67260;53.130;17.982;2023-05-20T08:03:10;4.40;;;2.30;;
77012;SDS011;67260;53.130;17.982;2023-05-20T08:05:46;5.50;;;2.50;;
77012;SDS011;67260;53.130;17.982;2023-05-20T08:08:13;7.00;;;2.70;;
77012;SDS011;67260;53.130;17.982;2023-05-20T08:10:49;4.60;;;2.40;;
77012;SDS011;67260;53.130;17.982;2023-05-20T08:13:17;4.50;;;2.30;;
77012;SDS011;67260;53.130;17.982;2023-05-20T08:15:44;5.70;;;2.50;;
77012;SDS011;67260;53.130;17.982;2023-05-20T08:18:10;4.60;;;2.20;;
77012;SDS011;67260;53.130;17.982;2023-05-20T08:20:37;5.40;;;2.40;;
77012;SDS011;67260;53.130;17.982;2023-05-20T08:23:03;7.20;;;2.80;;
77012;SDS011;67260;53.130;17.982;2023-05-20T08:27:56;5.50;;;2.50;;
77012;SDS011;67260;53.130;17.982;2023-05-20T08:30:22;7.00;;;2.50;;
77012;SDS011;67260;53.130;17.982;2023-05-20T08:32:48;6.50;;;2.50;;
77012;SDS011;67260;53.130;17.982;2023-05-20T08:35:18;6.00;;;2.40;;
77012;SDS011;67260;53.130;17.982;2023-05-20T08:37:44;6.90;;;3.10;;
77012;SDS011;67260;53.130;17.982;2023-05-20T08:40:10;7.60;;;2.70;;
77012;SDS011;67260;53.130;17.982;2023-05-20T08:42:39;6.50;;;2.90;;
77012;SDS011;67260;53.130;17.982;2023-05-20T08:45:11;5.90;;;2.80;;
77012;SDS011;67260;53.130;17.982;2023-05-20T08:47:42;8.70;;;2.70;;
77012;SDS011;67260;53.130;17.982;2023-05-20T08:50:10;8.90;;;2.70;;
77012;SDS011;67260;53.130;17.982;2023-05-20T08:52:41;5.30;;;3.00;;
77012;SDS011;67260;53.130;17.982;2023-05-20T08:55:15;11.10;;;3.20;;
77012;SDS011;67260;53.130;17.982;2023-05-20T08:57:50;6.30;;;2.90;;
77012;SDS011;67260;53.130;17.982;2023-05-20T09:00:19;6.80;;;3.00;;
77012;SDS011;67260;53.130;17.982;2023-05-20T09:02:52;5.70;;;3.10;;
77012;SDS011;67260;53.130;17.982;2023-05-20T09:05:19;6.40;;;3.00;;
77012;SDS011;67260;53.130;17.982;2023-05-20T09:07:46;6.30;;;2.70;;
77012;SDS011;67260;53.130;17.982;2023-05-20T09:10:12;8.10;;;2.90;;
77012;SDS011;67260;53.130;17.982;2023-05-20T09:12:39;8.20;;;3.20;;
77012;SDS011;67260;53.130;17.982;2023-05-20T09:15:07;6.10;;;2.70;;
77012;SDS011;67260;53.130;17.982;2023-05-20T09:17:37;5.10;;;3.00;;
77012;SDS011;67260;53.130;17.982;2023-05-20T09:20:08;6.90;;;2.90;;
77012;SDS011;67260;53.130;17.982;2023-05-20T09:22:37;7.30;;;2.30;;
77012;SDS011;67260;53.130;17.982;2023-05-20T09:25:04;5.00;;;2.70;;
77012;SDS011;67260;53.130;17.982;2023-05-20T09:27:31;10.00;;;2.50;;
77012;SDS011;67260;53.130;17.982;2023-05-20T09:29:57;6.00;;;2.40;;
77012;SDS011;67260;53.130;17.982;2023-05-20T09:32:23;6.90;;;2.50;;
77012;SDS011;67260;53.130;17.982;2023-05-20T09:34:52;4.10;;;2.50;;
77012;SDS011;67260;53.130;17.982;2023-05-20T09:37:20;6.50;;;2.70;;
77012;SDS011;67260;53.130;17.982;2023-05-20T09:40:02;6.40;;;2.60;;
77012;SDS011;67260;53.130;17.982;2023-05-20T09:42:34;6.80;;;2.80;;
77012;SDS011;67260;53.130;17.982;2023-05-20T09:45:06;4.70;;;2.20;;
77012;SDS011;67260;53.130;17.982;2023-05-20T09:47:37;5.80;;;2.20;;
77012;SDS011;67260;53.130;17.982;2023-05-20T09:50:05;5.40;;;2.30;;
77012;SDS011;67260;53.130;17.982;2023-05-20T09:52:36;4.20;;;2.40;;
77012;SDS011;67260;53.130;17.982;2023-05-20T09:55:06;6.90;;;2.50;;
77012;SDS011;67260;53.130;17.982;2023-05-20T09:57:35;6.50;;;2.20;;
77012;SDS011;67260;53.130;17.982;2023-05-20T10:00:03;8.70;;;2.50;;
77012;SDS011;67260;53.130;17.982;2023-05-20T10:02:40;5.30;;;2.30;;
77012;SDS011;67260;53.130;17.982;2023-05-20T10:05:10;4.60;;;2.40;;
77012;SDS011;67260;53.130;17.982;2023-05-20T10:10:17;5.30;;;3.10;;
77012;SDS011;67260;53.130;17.982;2023-05-20T10:15:43;5.10;;;2.90;;
77012;SDS011;67260;53.130;17.982;2023-05-20T10:18:19;5.00;;;3.20;;
77012;SDS011;67260;53.130;17.982;2023-05-20T10:20:48;5.50;;;3.00;;
77012;SDS011;67260;53.130;17.982;2023-05-20T10:23:28;6.30;;;3.20;;
77012;SDS011;67260;53.130;17.982;2023-05-20T10:25:56;4.70;;;3.20;;
77012;SDS011;67260;53.130;17.982;2023-05-20T10:31:13;5.40;;;3.00;;
77012;SDS011;67260;53.130;17.982;2023-05-20T10:33:45;5.10;;;2.90;;
77012;SDS011;67260;53.130;17.982;2023-05-20T10:36:24;7.20;;;3.10;;
77012;SDS011;67260;53.130;17.982;2023-05-20T10:38:55;4.60;;;3.10;;
77012;SDS011;67260;53.130;17.982;2023-05-20T10:41:24;8.60;;;3.60;;
77012;SDS011;67260;53.130;17.982;2023-05-20T10:44:05;5.30;;;2.80;;
77012;SDS011;67260;53.130;17.982;2023-05-20T10:46:32;6.00;;;2.90;;
77012;SDS011;67260;53.130;17.982;2023-05-20T10:49:03;5.00;;;2.70;;
77012;SDS011;67260;53.130;17.982;2023-05-20T10:51:29;5.80;;;2.80;;
77012;SDS011;67260;53.130;17.982;2023-05-20T10:54:01;5.90;;;3.50;;
77012;SDS011;67260;53.130;17.982;2023-05-20T10:56:27;4.60;;;3.00;;
77012;SDS011;67260;53.130;17.982;2023-05-20T10:58:54;4.40;;;2.90;;
77012;SDS011;67260;53.130;17.982;2023-05-20T11:01:24;8.50;;;3.30;;
77012;SDS011;67260;53.130;17.982;2023-05-20T11:03:52;5.60;;;3.30;;
77012;SDS011;67260;53.130;17.982;2023-05-20T11:06:24;5.30;;;3.00;;
77012;SDS011;67260;53.130;17.982;2023-05-20T11:08:51;7.20;;;4.30;;
77012;SDS011;67260;53.130;17.982;2023-05-20T11:11:18;6.10;;;3.30;;
77012;SDS011;67260;53.130;17.982;2023-05-20T11:13:44;6.90;;;3.40;;
77012;SDS011;67260;53.130;17.982;2023-05-20T11:16:14;6.50;;;3.30;;
77012;SDS011;67260;53.130;17.982;2023-05-20T11:18:41;6.80;;;3.90;;
77012;SDS011;67260;53.130;17.982;2023-05-20T11:21:06;10.10;;;3.90;;
77012;SDS011;67260;53.130;17.982;2023-05-20T11:23:32;7.20;;;3.80;;
77012;SDS011;67260;53.130;17.982;2023-05-20T11:25:58;6.30;;;3.90;;
77012;SDS011;67260;53.130;17.982;2023-05-20T11:28:24;9.10;;;3.70;;
77012;SDS011;67260;53.130;17.982;2023-05-20T11:30:51;6.60;;;3.60;;
77012;SDS011;67260;53.130;17.982;2023-05-20T11:33:18;7.20;;;4.40;;
77012;SDS011;67260;53.130;17.982;2023-05-20T11:35:45;8.00;;;4.20;;
77012;SDS011;67260;53.130;17.982;2023-05-20T11:38:16;10.40;;;4.00;;
77012;SDS011;67260;53.130;17.982;2023-05-20T11:40:43;6.50;;;3.40;;
77012;SDS011;67260;53.130;17.982;2023-05-20T11:43:19;9.40;;;4.70;;
77012;SDS011;67260;53.130;17.982;2023-05-20T11:45:50;6.90;;;4.20;;
77012;SDS011;67260;53.130;17.982;2023-05-20T11:48:18;7.70;;;4.20;;
77012;SDS011;67260;53.130;17.982;2023-05-20T11:50:45;6.50;;;4.10;;
77012;SDS011;67260;53.130;17.982;2023-05-20T11:53:16;5.80;;;4.00;;
77012;SDS011;67260;53.130;17.982;2023-05-20T11:55:46;6.60;;;4.20;;
77012;SDS011;67260;53.130;17.982;2023-05-20T11:58:14;6.70;;;4.20;;
77012;SDS011;67260;53.130;17.982;2023-05-20T12:00:44;10.70;;;5.10;;
77012;SDS011;67260;53.130;17.982;2023-05-20T12:03:10;7.30;;;4.10;;
77012;SDS011;67260;53.130;17.982;2023-05-20T12:05:37;8.80;;;3.90;;
77012;SDS011;67260;53.130;17.982;2023-05-20T12:08:04;8.00;;;4.30;;
77012;SDS011;67260;53.130;17.982;2023-05-20T12:10:31;8.90;;;4.30;;
77012;SDS011;67260;53.130;17.982;2023-05-20T12:12:57;7.00;;;4.40;;
77012;SDS011;67260;53.130;17.982;2023-05-20T12:15:23;8.50;;;4.40;;
77012;SDS011;67260;53.130;17.982;2023-05-20T12:17:50;6.90;;;4.50;;
77012;SDS011;67260;53.130;17.982;2023-05-20T12:20:20;7.60;;;4.40;;
77012;SDS011;67260;53.130;17.982;2023-05-20T12:22:47;7.40;;;4.60;;
77012;SDS011;67260;53.130;17.982;2023-05-20T12:25:15;8.10;;;4.30;;
77012;SDS011;67260;53.130;17.982;2023-05-20T12:27:44;8.80;;;4.50;;
77012;SDS011;67260;53.130;17.982;2023-05-20T12:30:17;9.80;;;6.00;;
77012;SDS011;67260;53.130;17.982;2023-05-20T12:32:44;7.30;;;4.50;;
77012;SDS011;67260;53.130;17.982;2023-05-20T12:35:11;7.60;;;4.60;;
77012;SDS011;67260;53.130;17.982;2023-05-20T12:37:38;6.80;;;5.00;;
77012;SDS011;67260;53.130;17.982;2023-05-20T12:40:06;7.70;;;4.90;;
77012;SDS011;67260;53.130;17.982;2023-05-20T12:42:37;7.60;;;4.70;;
77012;SDS011;67260;53.130;17.982;2023-05-20T12:45:05;9.00;;;4.90;;
77012;SDS011;67260;53.130;17.982;2023-05-20T12:47:32;9.20;;;5.10;;
77012;SDS011;67260;53.130;17.982;2023-05-20T12:49:59;8.50;;;4.90;;
77012;SDS011;67260;53.130;17.982;2023-05-20T12:52:25;10.00;;;5.50;;
77012;SDS011;67260;53.130;17.982;2023-05-20T12:54:55;10.30;;;5.40;;
77012;SDS011;67260;53.130;17.982;2023-05-20T12:57:24;8.60;;;5.00;;
77012;SDS011;67260;53.130;17.982;2023-05-20T12:59:51;11.00;;;5.10;;
77012;SDS011;67260;53.130;17.982;2023-05-20T13:02:17;8.50;;;4.50;;
77012;SDS011;67260;53.130;17.982;2023-05-20T13:04:44;10.00;;;5.00;;
77012;SDS011;67260;53.130;17.982;2023-05-20T13:07:10;10.90;;;4.80;;
77012;SDS011;67260;53.130;17.982;2023-05-20T13:09:36;7.60;;;4.60;;
77012;SDS011;67260;53.130;17.982;2023-05-20T13:12:02;9.60;;;4.90;;
77012;SDS011;67260;53.130;17.982;2023-05-20T13:14:28;12.20;;;5.40;;
77012;SDS011;67260;53.130;17.982;2023-05-20T13:19:21;9.70;;;4.50;;
77012;SDS011;67260;53.130;17.982;2023-05-20T13:21:48;6.30;;;4.40;;
77012;SDS011;67260;53.130;17.982;2023-05-20T13:24:15;7.90;;;4.40;;
77012;SDS011;67260;53.130;17.982;2023-05-20T13:26:43;7.90;;;4.40;;
77012;SDS011;67260;53.130;17.982;2023-05-20T13:29:10;7.40;;;4.60;;
77012;SDS011;67260;53.130;17.982;2023-05-20T13:31:37;11.00;;;4.40;;
77012;SDS011;67260;53.130;17.982;2023-05-20T13:34:04;7.80;;;4.30;;
77012;SDS011;67260;53.130;17.982;2023-05-20T13:36:31;11.20;;;4.70;;
77012;SDS011;67260;53.130;17.982;2023-05-20T13:38:57;7.70;;;4.50;;
77012;SDS011;67260;53.130;17.982;2023-05-20T13:41:23;9.50;;;4.60;;
77012;SDS011;67260;53.130;17.982;2023-05-20T13:43:51;8.40;;;4.70;;
77012;SDS011;67260;53.130;17.982;2023-05-20T13:46:17;10.30;;;4.90;;
77012;SDS011;67260;53.130;17.982;2023-05-20T13:48:43;9.50;;;4.80;;
77012;SDS011;67260;53.130;17.982;2023-05-20T13:51:09;8.50;;;5.30;;
77012;SDS011;67260;53.130;17.982;2023-05-20T13:53:35;7.70;;;4.50;;
77012;SDS011;67260;53.130;17.982;2023-05-20T13:56:01;8.10;;;4.80;;
77012;SDS011;67260;53.130;17.982;2023-05-20T13:58:28;34.20;;;22.60;;
77012;SDS011;67260;53.130;17.982;2023-05-20T14:00:54;13.40;;;7.80;;
77012;SDS011;67260;53.130;17.982;2023-05-20T14:05:46;7.80;;;5.10;;
77012;SDS011;67260;53.130;17.982;2023-05-20T14:08:12;12.20;;;6.70;;
77012;SDS011;67260;53.130;17.982;2023-05-20T14:10:39;6.90;;;5.00;;
77012;SDS011;67260;53.130;17.982;2023-05-20T14:13:05;12.50;;;7.00;;
77012;SDS011;67260;53.130;17.982;2023-05-20T14:15:33;9.40;;;6.50;;
77012;SDS011;67260;53.130;17.982;2023-05-20T14:20:27;14.30;;;6.30;;
77012;SDS011;67260;53.130;17.982;2023-05-20T14:22:53;9.50;;;5.40;;
77012;SDS011;67260;53.130;17.982;2023-05-20T14:25:20;13.00;;;10.30;;
77012;SDS011;67260;53.130;17.982;2023-05-20T14:30:12;9.00;;;5.10;;
77012;SDS011;67260;53.130;17.982;2023-05-20T14:35:04;7.90;;;5.30;;
77012;SDS011;67260;53.130;17.982;2023-05-20T14:37:34;6.90;;;4.70;;
77012;SDS011;67260;53.130;17.982;2023-05-20T14:42:26;9.50;;;5.20;;
77012;SDS011;67260;53.130;17.982;2023-05-20T14:47:18;8.60;;;5.10;;
77012;SDS011;67260;53.130;17.982;2023-05-20T14:49:46;8.60;;;5.80;;
77012;SDS011;67260;53.130;17.982;2023-05-20T14:54:45;9.10;;;5.00;;
77012;SDS011;67260;53.130;17.982;2023-05-20T14:57:11;10.50;;;5.10;;
77012;SDS011;67260;53.130;17.982;2023-05-20T14:59:37;12.50;;;6.30;;
77012;SDS011;67260;53.130;17.982;2023-05-20T15:02:04;12.20;;;6.80;;
77012;SDS011;67260;53.130;17.982;2023-05-20T15:04:31;9.80;;;6.30;;
77012;SDS011;67260;53.130;17.982;2023-05-20T15:06:57;11.10;;;6.60;;
77012;SDS011;67260;53.130;17.982;2023-05-20T15:09:23;10.20;;;6.50;;
77012;SDS011;67260;53.130;17.982;2023-05-20T15:11:50;9.90;;;6.20;;
77012;SDS011;67260;53.130;17.982;2023-05-20T15:14:16;9.30;;;6.10;;
77012;SDS011;67260;53.130;17.982;2023-05-20T15:16:43;8.90;;;6.20;;
77012;SDS011;67260;53.130;17.982;2023-05-20T15:21:35;12.80;;;7.50;;
77012;SDS011;67260;53.130;17.982;2023-05-20T15:24:01;9.70;;;6.00;;
77012;SDS011;67260;53.130;17.982;2023-05-20T15:26:31;8.60;;;6.00;;
77012;SDS011;67260;53.130;17.982;2023-05-20T15:28:57;9.90;;;5.90;;
77012;SDS011;67260;53.130;17.982;2023-05-20T15:31:23;9.60;;;6.60;;
77012;SDS011;67260;53.130;17.982;2023-05-20T15:33:50;10.50;;;6.00;;